createdAt,value
2019-01-04T00:01:17.850Z,102992.61
2019-01-04T00:03:46.934Z,102990.81
2019-01-04T00:06:15.985Z,102987.38
2019-01-04T00:08:45.036Z,102980.23
2019-01-04T00:11:14.238Z,102979.86
2019-01-04T00:13:58.036Z,102973.02
2019-01-04T00:16:27.115Z,102966.58
2019-01-04T00:18:56.162Z,102964.58
2019-01-04T00:21:25.208Z,102969.33
2019-01-04T00:23:54.491Z,102963.88
2019-01-04T00:26:23.549Z,102962.55
2019-01-04T00:28:52.585Z,102965.59
2019-01-04T00:31:21.852Z,102966.86
2019-01-04T00:33:50.892Z,102971.80
2019-01-04T00:36:19.938Z,102960.75
2019-01-04T00:38:49.012Z,102965.69
2019-01-04T00:41:18.062Z,102956.92
2019-01-04T00:43:47.126Z,102951.39
2019-01-04T00:46:16.198Z,102949.39
2019-01-04T00:48:45.239Z,102954.94
2019-01-04T00:51:14.290Z,102949.31
2019-01-04T00:53:43.376Z,102956.62
2019-01-04T00:56:28.559Z,102954.89
2019-01-04T00:59:09.432Z,102949.95
2019-01-04T01:01:45.236Z,102949.08
2019-01-04T01:04:25.975Z,102951.11
2019-01-04T01:10:12.491Z,102952.22
2019-01-04T01:12:48.115Z,102944.99
2019-01-04T01:18:11.383Z,102942.66
2019-01-04T01:20:40.434Z,102938.73
2019-01-04T01:23:14.977Z,102940.80
2019-01-04T01:26:05.996Z,102944.09
2019-01-04T01:28:53.650Z,102938.87
2019-01-04T01:31:28.529Z,102945.94
2019-01-04T01:34:04.376Z,102944.11
2019-01-04T01:36:35.248Z,102943.66
2019-01-04T01:39:25.769Z,102938.83
2019-01-04T01:41:55.770Z,102941.89
2019-01-04T01:44:36.489Z,102939.17
2019-01-04T01:47:05.539Z,102926.91
2019-01-04T01:49:50.298Z,102921.33
2019-01-04T01:52:34.231Z,102917.90
2019-01-04T01:55:03.320Z,102918.03
2019-01-04T01:57:32.376Z,102914.72
2019-01-04T02:00:01.418Z,102910.22
2019-01-04T02:02:30.614Z,102902.94
2019-01-04T02:04:59.663Z,102897.70
2019-01-04T02:07:28.711Z,102884.25
2019-01-04T02:09:57.784Z,102888.06
2019-01-04T02:12:26.841Z,102883.63
2019-01-04T02:14:55.890Z,102880.00
2019-01-04T02:17:25.060Z,102880.26
2019-01-04T02:19:54.110Z,102863.13
2019-01-04T02:22:23.160Z,102860.45
2019-01-04T02:24:52.271Z,102851.91
2019-01-04T02:27:21.330Z,102856.34
2019-01-04T02:29:50.362Z,102846.84
2019-01-04T02:32:19.440Z,102848.38
2019-01-04T02:34:48.502Z,102847.02
2019-01-04T02:37:17.564Z,102853.97
2019-01-04T02:39:46.640Z,102847.04
2019-01-04T02:42:15.695Z,102844.58
2019-01-04T02:44:44.734Z,102840.48
2019-01-04T02:47:13.861Z,102841.13
2019-01-04T02:49:42.903Z,102836.17
2019-01-04T02:52:11.955Z,102832.86
2019-01-04T02:54:41.027Z,102834.47
2019-01-04T02:57:10.070Z,102828.89
2019-01-04T02:59:39.110Z,102825.64
2019-01-04T03:02:08.201Z,102822.47
2019-01-04T03:04:37.247Z,102828.81
2019-01-04T03:07:06.300Z,102815.89
2019-01-04T03:09:35.427Z,102816.06
2019-01-04T03:12:04.467Z,102813.97
2019-01-04T03:14:33.503Z,102806.14
2019-01-04T03:17:02.582Z,102807.10
2019-01-04T03:19:31.615Z,102800.52
2019-01-04T03:22:00.652Z,102796.66
2019-01-04T03:24:29.717Z,102795.41
2019-01-04T03:26:58.748Z,102788.94
2019-01-04T03:29:27.786Z,102787.44
2019-01-04T03:31:56.898Z,102782.39
2019-01-04T03:34:25.987Z,102782.77
2019-01-04T03:36:54.995Z,102778.06
2019-01-04T03:39:24.065Z,102776.38
2019-01-04T03:41:53.102Z,102772.23
2019-01-04T03:44:22.143Z,102773.05
2019-01-04T03:46:51.299Z,102764.64
2019-01-04T03:49:20.347Z,102762.11
2019-01-04T03:51:49.381Z,102756.63
2019-01-04T03:54:18.480Z,102750.05
2019-01-04T03:56:47.520Z,102748.89
2019-01-04T03:59:16.552Z,102738.57
2019-01-04T04:01:45.637Z,102727.34
2019-01-04T04:04:14.686Z,102721.63
2019-01-04T04:06:43.726Z,102713.78
2019-01-04T04:09:12.795Z,102706.88
2019-01-04T04:11:41.835Z,102697.89
2019-01-04T04:14:10.876Z,102687.80
2019-01-04T04:16:39.993Z,102685.33
2019-01-04T04:19:09.035Z,102687.27
2019-01-04T04:21:38.084Z,102677.46
2019-01-04T04:24:07.184Z,102677.64
2019-01-04T04:26:36.222Z,102670.03
2019-01-04T04:29:05.270Z,102666.99
2019-01-04T04:31:34.349Z,102666.42
2019-01-04T04:34:22.142Z,102663.83
2019-01-04T04:36:51.250Z,102661.16
2019-01-04T04:39:20.303Z,102658.62
2019-01-04T04:41:49.342Z,102653.05
2019-01-04T04:44:18.402Z,102648.73
2019-01-04T04:46:47.445Z,102640.06
2019-01-04T04:49:16.488Z,102639.22
2019-01-04T04:51:45.562Z,102637.13
2019-01-04T04:54:14.604Z,102629.66
2019-01-04T04:56:43.662Z,102621.68
2019-01-04T04:59:12.760Z,102614.31
2019-01-04T05:01:41.948Z,102601.00
2019-01-04T05:04:10.997Z,102607.83
2019-01-04T05:06:40.064Z,102590.64
2019-01-04T05:09:09.099Z,102586.30
2019-01-04T05:11:38.136Z,102581.12
2019-01-04T05:14:07.217Z,102585.30
2019-01-04T05:16:36.250Z,102577.97
2019-01-04T05:19:05.298Z,102577.02
2019-01-04T05:21:34.488Z,102570.53
2019-01-04T05:24:03.518Z,102569.32
2019-01-04T05:26:32.560Z,102564.00
2019-01-04T05:29:01.631Z,102556.84
2019-01-04T05:31:30.680Z,102542.17
2019-01-04T05:33:59.728Z,102546.84
2019-01-04T05:36:28.825Z,102542.68
2019-01-04T05:38:58.052Z,102524.86
2019-01-04T05:41:27.094Z,102525.16
2019-01-04T05:44:01.065Z,102511.91
2019-01-04T05:46:30.106Z,102503.89
2019-01-04T05:48:59.160Z,102499.68
2019-01-04T05:51:28.668Z,102494.15
2019-01-04T05:53:57.551Z,102491.55
2019-01-04T05:56:26.599Z,102487.13
2019-01-04T05:58:55.779Z,102476.55
2019-01-04T06:01:24.828Z,102476.20
2019-01-04T06:03:54.788Z,102465.45
2019-01-04T06:06:23.882Z,102469.61
2019-01-04T06:08:52.919Z,102467.02
2019-01-04T06:11:21.968Z,102462.17
2019-01-04T06:13:51.061Z,102455.12
2019-01-04T06:16:20.098Z,102452.14
2019-01-04T06:18:49.131Z,102448.62
2019-01-04T06:21:18.214Z,102435.90
2019-01-04T06:24:10.742Z,102418.00
2019-01-04T06:26:40.078Z,102409.23
2019-01-04T06:29:09.151Z,102394.61
2019-01-04T06:31:38.175Z,102391.34
2019-01-04T06:34:07.243Z,102382.80
2019-01-04T06:36:36.283Z,102367.88
2019-01-04T06:39:05.346Z,102365.78
2019-01-04T06:41:34.431Z,102372.13
2019-01-04T06:44:03.473Z,102366.97
2019-01-04T06:46:32.526Z,102356.43
2019-01-04T06:49:01.618Z,102351.71
2019-01-04T06:51:30.679Z,102342.49
2019-01-04T06:54:09.595Z,102332.03
2019-01-04T06:56:38.635Z,102336.57
2019-01-04T06:59:07.677Z,102326.88
2019-01-04T07:01:37.065Z,102326.66
2019-01-04T07:04:06.101Z,102324.29
2019-01-04T07:06:35.163Z,102320.64
2019-01-04T07:09:04.272Z,102315.48
2019-01-04T07:11:33.308Z,102315.38
2019-01-04T07:14:02.350Z,102305.53
2019-01-04T07:16:31.426Z,102302.16
2019-01-04T07:19:00.468Z,102309.59
2019-01-04T07:21:29.536Z,102306.88
2019-01-04T07:23:58.575Z,102299.01
2019-01-04T07:26:27.625Z,102295.78
2019-01-04T07:28:56.673Z,102297.24
2019-01-04T07:31:25.755Z,102297.78
2019-01-04T07:33:54.795Z,102308.80
2019-01-04T07:36:23.850Z,102305.54
2019-01-04T07:38:52.918Z,102307.33
2019-01-04T07:41:21.952Z,102303.38
2019-01-04T07:43:51.006Z,102297.14
2019-01-04T07:46:20.086Z,102291.16
2019-01-04T07:48:49.146Z,102284.32
2019-01-04T07:51:18.196Z,102283.83
2019-01-04T07:53:47.298Z,102284.73
2019-01-04T07:56:16.351Z,102280.69
2019-01-04T07:58:45.402Z,102276.88
2019-01-04T08:01:14.480Z,102272.00
2019-01-04T08:03:43.519Z,102259.91
2019-01-04T08:06:12.567Z,102251.27
2019-01-04T08:08:41.641Z,102238.66
2019-01-04T08:11:10.698Z,102238.71
2019-01-04T08:13:39.752Z,102237.41
2019-01-04T08:16:09.018Z,102231.64
2019-01-04T08:18:38.072Z,102228.31
2019-01-04T08:21:07.122Z,102217.39
2019-01-04T08:23:36.209Z,102219.53
2019-01-04T08:26:05.248Z,102210.25
2019-01-04T08:28:34.319Z,102205.59
2019-01-04T08:31:03.394Z,102207.36
2019-01-04T08:33:32.451Z,102210.83
2019-01-04T08:36:01.514Z,102212.19
2019-01-04T08:38:30.758Z,102192.80
2019-01-04T08:40:59.808Z,102188.95
2019-01-04T08:43:41.909Z,102182.53
2019-01-04T08:46:10.964Z,102174.98
2019-01-04T08:48:40.019Z,102169.75
2019-01-04T08:51:09.117Z,102168.44
2019-01-04T08:53:49.985Z,102166.94
2019-01-04T08:56:19.122Z,102151.47
2019-01-04T08:58:48.167Z,102144.30
2019-01-04T09:01:17.232Z,102140.48
2019-01-04T09:03:46.347Z,102131.72
2019-01-04T09:06:16.189Z,102133.21
2019-01-04T09:08:45.265Z,102122.54
2019-01-04T09:11:14.350Z,102113.91
2019-01-04T09:13:43.402Z,102110.16
2019-01-04T09:16:12.454Z,102103.80
2019-01-04T09:18:41.584Z,102103.05
2019-01-04T09:21:10.639Z,102094.01
2019-01-04T09:23:44.634Z,102090.59
2019-01-04T09:26:13.675Z,102090.81
2019-01-04T09:28:42.734Z,102089.17
2019-01-04T09:31:11.836Z,102090.83
2019-01-04T09:33:40.882Z,102083.56
2019-01-04T09:36:09.944Z,102079.00
2019-01-04T09:38:39.159Z,102081.26
2019-01-04T09:41:16.875Z,102086.55
2019-01-04T09:43:45.948Z,102076.17
2019-01-04T09:46:15.006Z,102075.94
2019-01-04T09:48:44.058Z,102071.62
2019-01-04T09:51:13.146Z,102066.02
2019-01-04T09:53:42.200Z,102058.83
2019-01-04T09:56:11.261Z,102044.22
2019-01-04T09:58:40.465Z,102043.27
2019-01-04T10:01:09.523Z,102040.14
2019-01-04T10:04:02.094Z,102038.83
2019-01-04T10:06:31.928Z,102034.31
2019-01-04T10:09:01.075Z,102034.06
2019-01-04T10:11:30.125Z,102024.08
2019-01-04T10:13:59.170Z,102022.31
2019-01-04T10:16:28.288Z,102012.91
2019-01-04T10:18:57.352Z,102010.06
2019-01-04T10:21:26.407Z,102008.31
2019-01-04T10:23:55.499Z,101999.52
2019-01-04T10:26:24.551Z,102001.97
2019-01-04T10:28:53.601Z,101997.66
2019-01-04T10:31:22.687Z,102001.31
2019-01-04T10:33:51.746Z,101993.27
2019-01-04T10:36:20.806Z,101998.02
2019-01-04T10:38:49.925Z,101999.95
2019-01-04T10:41:18.988Z,102001.42
2019-01-04T10:43:48.054Z,101998.27
2019-01-04T10:46:17.141Z,101988.22
2019-01-04T10:48:46.210Z,101987.30
2019-01-04T10:51:15.265Z,101983.09
2019-01-04T10:53:44.354Z,101981.68
2019-01-04T10:56:13.414Z,101974.86
2019-01-04T10:58:42.473Z,101983.53
2019-01-04T11:01:11.587Z,101972.95
2019-01-04T11:03:40.638Z,101970.39
2019-01-04T11:06:09.692Z,101959.88
2019-01-04T11:08:39.102Z,101946.19
2019-01-04T11:11:08.162Z,101934.97
2019-01-04T11:13:37.220Z,101932.58
2019-01-04T11:16:06.310Z,101930.16
2019-01-04T11:18:35.367Z,101930.05
2019-01-04T11:21:04.437Z,101929.45
2019-01-04T11:23:36.388Z,101924.91
2019-01-04T11:26:07.123Z,101930.52
2019-01-04T11:28:40.995Z,101928.34
2019-01-04T11:31:14.739Z,101925.98
2019-01-04T11:33:43.821Z,101926.66
2019-01-04T11:36:15.559Z,101917.30
2019-01-04T11:38:45.629Z,101913.84
2019-01-04T11:44:13.826Z,101912.22
2019-01-04T11:46:55.734Z,101907.80
2019-01-04T11:49:26.581Z,101897.33
2019-01-04T11:52:13.666Z,101891.56
2019-01-04T11:54:42.815Z,101893.34
2019-01-04T11:57:11.883Z,101893.26
2019-01-04T11:59:40.947Z,101877.95
2019-01-04T12:02:10.038Z,101888.33
2019-01-04T12:04:39.103Z,101893.59
2019-01-04T12:07:08.167Z,101894.09
2019-01-04T12:09:37.259Z,101892.80
2019-01-04T12:12:06.313Z,101890.70
2019-01-04T12:14:41.219Z,101882.30
2019-01-04T12:17:04.658Z,101877.70
2019-01-04T12:19:33.723Z,101872.68
2019-01-04T12:22:02.790Z,101867.87
2019-01-04T12:24:31.886Z,101864.26
2019-01-04T12:27:00.966Z,101864.09
2019-01-04T12:29:30.028Z,101855.40
2019-01-04T12:31:59.123Z,101859.75
2019-01-04T12:34:28.168Z,101855.58
2019-01-04T12:36:57.262Z,101849.91
2019-01-04T12:39:26.369Z,101846.61
2019-01-04T12:41:55.434Z,101841.83
2019-01-04T12:44:24.492Z,101844.01
2019-01-04T12:46:53.578Z,101851.14
2019-01-04T12:49:22.635Z,101849.63
2019-01-04T12:51:51.694Z,101848.78
2019-01-04T12:54:20.785Z,101835.49
2019-01-04T12:56:49.845Z,101848.06
2019-01-04T12:59:18.911Z,101846.28
2019-01-04T13:01:48.013Z,101836.31
2019-01-04T13:04:17.077Z,101831.97
2019-01-04T13:06:46.132Z,101833.26
2019-01-04T13:09:15.220Z,101822.61
2019-01-04T13:11:44.278Z,101822.03
2019-01-04T13:14:14.374Z,101818.53
2019-01-04T13:16:43.460Z,101814.42
2019-01-04T13:19:12.536Z,101805.06
2019-01-04T13:21:41.591Z,101812.25
2019-01-04T13:24:10.802Z,101804.42
2019-01-04T13:26:39.853Z,101794.07
2019-01-04T13:29:08.903Z,101794.86
2019-01-04T13:31:37.986Z,101786.75
2019-01-04T13:34:07.036Z,101792.69
2019-01-04T13:36:36.096Z,101788.11
2019-01-04T13:39:05.179Z,101786.97
2019-01-04T13:41:34.244Z,101785.60
2019-01-04T13:44:07.787Z,101781.73
2019-01-04T13:46:36.847Z,101783.35
2019-01-04T13:49:05.914Z,101784.72
2019-01-04T13:51:35.006Z,101781.66
2019-01-04T13:54:04.062Z,101787.69
2019-01-04T13:56:33.128Z,101791.99
2019-01-04T13:59:02.214Z,101792.25
2019-01-04T14:01:31.276Z,101795.06
2019-01-04T14:04:00.335Z,101792.19
2019-01-04T14:06:29.448Z,101786.89
2019-01-04T14:08:58.516Z,101780.72
2019-01-04T14:11:27.578Z,101782.98
2019-01-04T14:13:56.661Z,101777.16
2019-01-04T14:16:25.713Z,101776.39
2019-01-04T14:18:54.771Z,101776.81
2019-01-04T14:21:23.878Z,101780.67
2019-01-04T14:23:52.923Z,101779.23
2019-01-04T14:26:21.978Z,101769.33
2019-01-04T14:28:51.079Z,101769.44
2019-01-04T14:31:20.134Z,101774.70
2019-01-04T14:33:49.187Z,101765.81
2019-01-04T14:36:18.362Z,101747.18
2019-01-04T14:38:47.425Z,101753.91
2019-01-04T14:41:16.487Z,101744.73
2019-01-04T14:43:45.563Z,101731.70
2019-01-04T14:46:14.619Z,101731.95
2019-01-04T14:48:43.685Z,101731.11
2019-01-04T14:51:12.800Z,101719.14
2019-01-04T14:53:41.849Z,101728.48
2019-01-04T14:56:10.943Z,101718.73
2019-01-04T14:58:40.026Z,101720.23
2019-01-04T15:01:09.083Z,101723.65
2019-01-04T15:03:38.146Z,101727.30
2019-01-04T15:06:07.232Z,101737.02
2019-01-04T15:08:36.298Z,101728.56
2019-01-04T15:11:05.349Z,101730.25
2019-01-04T15:13:34.455Z,101735.44
2019-01-04T15:16:03.506Z,101732.45
2019-01-04T15:18:32.570Z,101731.74
2019-01-04T15:21:01.662Z,101732.84
2019-01-04T15:23:30.734Z,101731.28
2019-01-04T15:25:59.805Z,101728.78
2019-01-04T15:28:29.233Z,101718.39
2019-01-04T15:30:58.287Z,101705.83
2019-01-04T15:36:35.753Z,101691.52
2019-01-04T15:39:05.059Z,101696.30
2019-01-04T15:41:34.102Z,101693.14
2019-01-04T15:44:03.179Z,101689.61
2019-01-04T15:46:32.261Z,101686.52
2019-01-04T15:49:01.333Z,101672.38
2019-01-04T15:51:30.372Z,101681.20
2019-01-04T15:53:59.472Z,101667.27
2019-01-04T15:56:28.532Z,101661.72
2019-01-04T15:58:57.580Z,101662.62
2019-01-04T16:01:26.661Z,101665.06
2019-01-04T16:03:55.726Z,101672.97
2019-01-04T16:06:24.782Z,101673.63
2019-01-04T16:08:53.860Z,101663.91
2019-01-04T16:11:22.913Z,101673.33
2019-01-04T16:13:52.788Z,101671.75
2019-01-04T16:16:22.050Z,101664.95
2019-01-04T16:18:51.107Z,101657.37
2019-01-04T16:21:20.155Z,101663.71
2019-01-04T16:23:49.238Z,101654.30
2019-01-04T16:26:18.302Z,101657.23
2019-01-04T16:28:47.362Z,101651.75
2019-01-04T16:31:16.492Z,101650.59
2019-01-04T16:33:45.552Z,101642.92
2019-01-04T16:36:14.612Z,101643.20
2019-01-04T16:38:43.709Z,101641.73
2019-01-04T16:41:12.759Z,101647.25
2019-01-04T16:43:48.290Z,101650.28
2019-01-04T16:46:17.352Z,101650.34
2019-01-04T16:48:46.405Z,101652.31
2019-01-04T16:51:15.481Z,101642.02
2019-01-04T16:53:44.533Z,101644.19
2019-01-04T16:56:13.581Z,101642.94
2019-01-04T16:58:42.722Z,101633.86
2019-01-04T17:01:11.776Z,101638.33
2019-01-04T17:03:40.819Z,101630.70
2019-01-04T17:06:10.154Z,101630.59
2019-01-04T17:08:39.204Z,101631.80
2019-01-04T17:11:08.290Z,101625.50
2019-01-04T17:13:48.899Z,101627.45
2019-01-04T17:16:17.956Z,101619.56
2019-01-04T17:18:47.018Z,101625.40
2019-01-04T17:21:16.113Z,101609.48
2019-01-04T17:23:45.152Z,101609.09
2019-01-04T17:26:14.209Z,101600.81
2019-01-04T17:28:43.302Z,101591.46
2019-01-04T17:31:12.348Z,101589.99
2019-01-04T17:36:43.595Z,101594.95
2019-01-04T17:39:12.678Z,101596.02
2019-01-04T17:41:41.726Z,101595.66
2019-01-04T17:44:10.783Z,101592.49
2019-01-04T17:46:39.889Z,101591.84
2019-01-04T17:49:08.941Z,101596.42
2019-01-04T17:51:37.986Z,101590.12
2019-01-04T17:54:07.088Z,101586.52
2019-01-04T17:56:36.134Z,101586.74
2019-01-04T17:59:05.196Z,101582.43
2019-01-04T18:01:34.276Z,101576.82
2019-01-04T18:04:03.330Z,101573.06
2019-01-04T18:06:32.385Z,101565.49
2019-01-04T18:09:01.478Z,101560.66
2019-01-04T18:11:30.534Z,101559.89
2019-01-04T18:13:59.590Z,101555.58
2019-01-04T18:16:29.651Z,101546.61
2019-01-04T18:18:58.711Z,101544.91
2019-01-04T18:21:27.763Z,101538.72
2019-01-04T18:23:56.915Z,101537.50
2019-01-04T18:26:25.966Z,101521.94
2019-01-04T18:28:55.012Z,101519.42
2019-01-04T18:31:24.122Z,101519.75
2019-01-04T18:33:53.188Z,101524.77
2019-01-04T18:36:22.239Z,101518.01
2019-01-04T18:38:52.135Z,101519.86
2019-01-04T18:41:20.396Z,101520.34
2019-01-04T18:43:49.449Z,101518.07
2019-01-04T18:46:18.562Z,101517.47
2019-01-04T18:48:47.613Z,101519.47
2019-01-04T18:51:16.669Z,101525.90
2019-01-04T18:53:45.749Z,101526.01
2019-01-04T18:56:14.798Z,101530.33
2019-01-04T18:58:43.850Z,101529.78
2019-01-04T19:01:13.767Z,101532.72
2019-01-04T19:03:45.859Z,101531.14
2019-01-04T19:06:14.936Z,101528.41
2019-01-04T19:08:43.998Z,101523.78
2019-01-04T19:11:13.054Z,101524.17
2019-01-04T19:13:42.218Z,101527.06
2019-01-04T19:16:11.276Z,101528.15
2019-01-04T19:18:41.169Z,101511.44
2019-01-04T19:21:10.279Z,101489.92
2019-01-04T19:23:39.672Z,101496.47
2019-01-04T19:26:08.415Z,101490.41
2019-01-04T19:28:37.507Z,101488.08
2019-01-04T19:31:06.559Z,101479.29
2019-01-04T19:33:47.749Z,101468.30
2019-01-04T19:36:16.814Z,101466.95
2019-01-04T19:38:45.872Z,101461.77
2019-01-04T19:41:15.002Z,101473.69
2019-01-04T19:43:44.066Z,101473.80
2019-01-04T19:46:13.131Z,101474.34
2019-01-04T19:48:42.227Z,101459.64
2019-01-04T19:51:11.279Z,101462.58
2019-01-04T19:53:40.354Z,101457.34
2019-01-04T19:56:09.474Z,101445.37
2019-01-04T19:58:38.541Z,101438.95
2019-01-04T20:01:07.595Z,101437.68
2019-01-04T20:03:36.717Z,101449.98
2019-01-04T20:06:12.547Z,101433.38
2019-01-04T20:08:54.075Z,101419.92
2019-01-04T20:11:41.644Z,101429.25
2019-01-04T20:17:14.204Z,101424.88
2019-01-04T20:22:32.316Z,101419.59
2019-01-04T20:27:44.701Z,101421.19
2019-01-04T20:32:59.219Z,101431.75
2019-01-04T20:35:33.811Z,101424.40
2019-01-04T20:38:02.862Z,101424.12
2019-01-04T20:40:34.876Z,101419.80
2019-01-04T20:43:09.447Z,101417.84
2019-01-04T20:45:38.526Z,101418.45
2019-01-04T20:48:07.574Z,101418.12
2019-01-04T20:50:42.597Z,101414.35
2019-01-04T20:53:12.441Z,101416.70
2019-01-04T20:55:47.043Z,101411.68
2019-01-04T21:00:58.954Z,101410.20
2019-01-04T21:03:33.603Z,101411.28
2019-01-04T21:06:04.634Z,101411.19
2019-01-04T21:08:35.510Z,101400.18
2019-01-04T21:11:10.218Z,101400.17
2019-01-04T21:13:48.619Z,101394.39
2019-01-04T21:16:18.514Z,101386.02
2019-01-04T21:18:47.560Z,101373.52
2019-01-04T21:24:05.529Z,101372.64
2019-01-04T21:26:34.610Z,101377.11
2019-01-04T21:29:05.620Z,101373.45
2019-01-04T21:31:40.211Z,101369.63
2019-01-04T21:34:14.774Z,101364.27
2019-01-04T21:36:45.684Z,101363.35
2019-01-04T21:39:16.712Z,101354.72
2019-01-04T21:41:49.706Z,101350.35
2019-01-04T21:44:24.600Z,101346.30
2019-01-04T21:46:55.559Z,101338.08
2019-01-04T21:49:30.121Z,101329.51
2019-01-04T21:52:04.926Z,101324.55
2019-01-04T21:54:33.979Z,101319.70
2019-01-04T21:57:08.700Z,101310.92
2019-01-04T21:59:40.732Z,101310.73
2019-01-04T22:02:10.798Z,101306.81
2019-01-04T22:04:44.945Z,101305.01
2019-01-04T22:07:17.892Z,101305.66
2019-01-04T22:09:47.746Z,101294.50
2019-01-04T22:12:18.643Z,101292.75
2019-01-04T22:14:50.504Z,101292.08
2019-01-04T22:17:21.400Z,101286.62
2019-01-04T22:19:53.367Z,101278.50
2019-01-04T22:22:22.483Z,101273.43
2019-01-04T22:24:54.475Z,101273.80
2019-01-04T22:27:28.376Z,101269.54
2019-01-04T22:29:57.423Z,101276.34
2019-01-04T22:32:26.472Z,101268.38
2019-01-04T22:34:55.545Z,101264.45
2019-01-04T22:37:26.503Z,101260.60
2019-01-04T22:40:01.287Z,101261.53
2019-01-04T22:42:36.194Z,101269.28
2019-01-04T22:45:10.274Z,101267.86
2019-01-04T22:47:44.112Z,101271.93
2019-01-04T22:50:14.015Z,101267.68
2019-01-04T22:52:43.071Z,101267.55
2019-01-04T22:55:15.138Z,101260.14
2019-01-04T22:57:49.861Z,101264.44
2019-01-04T23:00:24.509Z,101264.31
2019-01-04T23:02:56.395Z,101260.63
2019-01-04T23:05:27.390Z,101260.89
2019-01-04T23:07:57.277Z,101246.23
2019-01-04T23:10:27.137Z,101242.59
2019-01-04T23:12:56.237Z,101239.70
2019-01-04T23:15:29.294Z,101239.28
2019-01-04T23:18:03.976Z,101236.50
2019-01-04T23:20:36.016Z,101230.45
2019-01-04T23:23:12.465Z,101236.89
2019-01-04T23:25:46.469Z,101231.02
2019-01-04T23:28:16.531Z,101245.24
2019-01-04T23:30:49.571Z,101240.38
2019-01-04T23:33:19.583Z,101239.95
2019-01-04T23:35:52.570Z,101239.39
2019-01-04T23:38:27.304Z,101239.02
2019-01-04T23:40:56.356Z,101244.15
2019-01-04T23:43:30.961Z,101247.19
2019-01-04T23:46:05.510Z,101248.80
2019-01-04T23:48:40.102Z,101252.23
2019-01-04T23:51:14.649Z,101246.08
2019-01-04T23:53:43.757Z,101247.49
2019-01-04T23:56:12.812Z,101254.41
2019-01-04T23:58:42.669Z,101245.27
